Time;durP1;ratioP1;P1;durP2;ratioP2;P2;SDS_P1;SDS_P2;PMS_P1;PMS_P2;Temp;Humidity;BMP_temperature;BMP_pressure;BME280_temperature;BME280_humidity;BME280_pressure;Samples;Min_cycle;Max_cycle;Signal;HPM_P1;HPM_P2
2022/11/05 05:22:34;;;;;;;4.38;2.75;;;;;;;9.05;100.00;100261.31;5109378;27;20323;-69
2022/11/05 05:24:59;;;;;;;5.88;3.13;;;;;;;9.03;100.00;100271.28;5109413;28;20413;-70
2022/11/05 05:27:30;;;;;;;4.95;2.83;;;;;;;9.10;100.00;100277.63;5108059;28;20293;-70
2022/11/05 05:29:56;;;;;;;4.75;3.38;;;;;;;9.04;100.00;100278.28;5107828;28;20040;-69
2022/11/05 05:32:23;;;;;;;5.20;3.65;;;;;;;9.06;100.00;100282.41;5107869;28;20036;-70
2022/11/05 05:34:48;;;;;;;6.43;3.10;;;;;;;9.10;100.00;100281.09;5108583;28;20071;-70
2022/11/05 05:37:15;;;;;;;5.57;3.25;;;;;;;9.09;100.00;100291.91;5109156;28;20067;-69
2022/11/05 05:39:40;;;;;;;5.28;2.75;;;;;;;9.08;100.00;100295.56;5109179;28;20637;-70
2022/11/05 05:42:05;;;;;;;6.53;3.50;;;;;;;9.00;100.00;100296.38;5108753;28;20043;-70
2022/11/05 05:44:31;;;;;;;4.22;2.58;;;;;;;9.00;100.00;100295.50;5108993;28;20453;-70
2022/11/05 05:46:56;;;;;;;3.78;2.30;;;;;;;9.04;100.00;100296.88;5108943;28;20450;-70
2022/11/05 05:49:22;;;;;;;5.85;3.05;;;;;;;9.06;100.00;100306.31;5109246;28;20043;-69
2022/11/05 05:51:48;;;;;;;4.22;2.60;;;;;;;9.07;100.00;100310.69;5108546;28;20035;-69
2022/11/05 05:54:14;;;;;;;6.03;2.63;;;;;;;9.09;100.00;100310.50;5108890;28;20032;-69
2022/11/05 05:56:43;;;;;;;3.92;2.80;;;;;;;9.03;100.00;100317.28;5108749;28;20036;-69
2022/11/05 05:59:08;;;;;;;6.95;2.70;;;;;;;9.01;100.00;100313.97;5108721;28;20035;-70
2022/11/05 06:01:34;;;;;;;4.95;2.58;;;;;;;9.01;100.00;100313.97;5108413;28;20096;-70
2022/11/05 06:03:59;;;;;;;3.15;2.05;;;;;;;9.03;100.00;100327.09;5108612;28;20031;-70
2022/11/05 06:06:24;;;;;;;2.92;1.92;;;;;;;9.08;100.00;100335.44;5108567;28;20451;-69
2022/11/05 06:08:50;;;;;;;2.70;1.75;;;;;;;9.03;100.00;100335.06;5090356;28;20047;-70
2022/11/05 06:11:15;;;;;;;3.88;2.08;;;;;;;9.01;100.00;100335.22;5108189;28;20040;-69
2022/11/05 06:13:41;;;;;;;3.05;2.20;;;;;;;9.06;100.00;100340.03;5108360;28;20039;-70
2022/11/05 06:16:08;;;;;;;4.50;2.63;;;;;;;9.04;100.00;100342.03;5108385;28;20556;-70
2022/11/05 06:18:34;;;;;;;4.43;2.00;;;;;;;9.08;100.00;100349.53;5107075;28;20123;-70
2022/11/05 06:21:03;;;;;;;6.60;2.60;;;;;;;9.10;100.00;100346.72;5108012;28;20122;-70
2022/11/05 06:23:33;;;;;;;3.35;2.55;;;;;;;9.10;100.00;100352.03;5108254;28;20115;-70
2022/11/05 06:26:00;;;;;;;3.83;2.20;;;;;;;9.07;100.00;100357.69;5108274;28;20051;-70
2022/11/05 06:28:26;;;;;;;2.80;1.93;;;;;;;9.05;100.00;100363.13;5108224;28;20027;-70
2022/11/05 06:30:51;;;;;;;3.47;2.33;;;;;;;9.00;100.00;100368.13;5107890;28;20793;-66
2022/11/05 06:33:17;;;;;;;4.40;2.13;;;;;;;9.07;100.00;100369.13;5098108;28;20044;-65
2022/11/05 06:35:42;;;;;;;3.55;2.08;;;;;;;9.04;100.00;100385.38;5094438;28;20028;-62
2022/11/05 06:38:08;;;;;;;4.40;2.10;;;;;;;9.07;100.00;100378.94;5093276;28;20446;-61
2022/11/05 06:40:33;;;;;;;4.25;2.25;;;;;;;9.04;100.00;100380.06;5092987;28;20086;-62
2022/11/05 06:42:58;;;;;;;4.20;2.53;;;;;;;9.01;100.00;100390.19;5094512;28;20032;-62
2022/11/05 06:45:24;;;;;;;3.00;1.75;;;;;;;8.94;100.00;100388.19;5094363;28;20040;-62
2022/11/05 06:47:56;;;;;;;3.47;2.20;;;;;;;8.93;100.00;100393.63;5094277;28;20101;-65
2022/11/05 06:50:23;;;;;;;5.05;2.25;;;;;;;8.94;100.00;100395.31;5093915;28;20032;-64
2022/11/05 06:53:07;;;;;;;4.15;2.38;;;;;;;8.89;100.00;100405.59;5094224;28;20036;-65
2022/11/05 06:55:32;;;;;;;4.45;2.33;;;;;;;8.80;100.00;100406.50;5093998;28;20044;-64
2022/11/05 06:57:58;;;;;;;3.05;1.95;;;;;;;8.70;100.00;100406.63;5094145;28;20040;-65
2022/11/05 07:00:23;;;;;;;2.35;1.45;;;;;;;8.81;100.00;100409.03;5093686;28;20036;-64
2022/11/05 07:02:49;;;;;;;6.43;1.83;;;;;;;8.90;100.00;100413.38;5092569;28;20115;-65
2022/11/05 07:05:15;;;;;;;4.75;2.35;;;;;;;8.88;100.00;100412.72;5093744;28;20040;-64
2022/11/05 07:07:43;;;;;;;4.90;2.20;;;;;;;8.92;100.00;100422.03;5092589;28;20500;-64
2022/11/05 07:10:14;;;;;;;3.75;2.30;;;;;;;8.92;100.00;100430.00;5093678;28;20124;-63
2022/11/05 07:12:40;;;;;;;3.47;2.08;;;;;;;8.96;100.00;100439.31;5093747;28;20046;-63
2022/11/05 07:15:06;;;;;;;4.72;2.60;;;;;;;8.97;100.00;100438.31;5092566;28;20055;-64
2022/11/05 07:17:32;;;;;;;4.35;2.40;;;;;;;9.02;100.00;100451.16;5093582;28;20377;-64
2022/11/05 07:19:57;;;;;;;3.15;2.05;;;;;;;8.95;100.00;100450.94;5093465;28;20131;-61
2022/11/05 07:22:23;;;;;;;4.22;2.55;;;;;;;9.03;100.00;100457.28;5093107;28;20036;-62
2022/11/05 07:24:49;;;;;;;5.10;2.20;;;;;;;9.01;100.00;100462.78;5093490;28;20028;-64
2022/11/05 07:27:15;;;;;;;3.40;1.80;;;;;;;8.95;100.00;100461.56;5093410;28;20121;-61
2022/11/05 07:29:40;;;;;;;2.65;2.03;;;;;;;8.88;100.00;100462.38;5093367;28;20038;-62
2022/11/05 07:32:05;;;;;;;3.47;1.67;;;;;;;8.88;100.00;100465.84;5093036;28;20665;-62
2022/11/05 07:34:31;;;;;;;3.28;2.38;;;;;;;9.05;100.00;100460.63;5093301;28;20040;-61
2022/11/05 07:36:57;;;;;;;2.10;1.40;;;;;;;9.03;100.00;100467.94;5093167;28;20473;-60
2022/11/05 07:39:22;;;;;;;3.45;2.20;;;;;;;9.01;100.00;100473.41;5093129;28;20044;-63
2022/11/05 07:41:50;;;;;;;2.58;1.77;;;;;;;8.96;100.00;100471.22;5093020;28;20032;-59
2022/11/05 07:44:16;;;;;;;2.65;1.65;;;;;;;9.01;100.00;100476.06;5092053;28;20040;-62
2022/11/05 07:46:42;;;;;;;3.38;1.92;;;;;;;9.01;100.00;100468.09;5092869;28;20036;-61
2022/11/05 07:49:07;;;;;;;4.75;1.90;;;;;;;9.11;100.00;100475.94;5092983;28;20392;-63
2022/11/05 07:51:32;;;;;;;2.90;1.95;;;;;;;9.16;100.00;100473.63;5092641;28;20032;-62
2022/11/05 07:53:58;;;;;;;3.13;2.05;;;;;;;9.15;100.00;100480.78;5092922;28;20044;-59
2022/11/05 07:56:23;;;;;;;2.67;1.77;;;;;;;9.21;100.00;100484.63;5092856;28;20024;-62
2022/11/05 07:58:48;;;;;;;2.42;1.85;;;;;;;9.24;100.00;100490.44;5092800;28;20125;-60
2022/11/05 08:01:14;;;;;;;3.63;2.00;;;;;;;9.24;100.00;100489.63;5092338;28;20032;-62
2022/11/05 08:03:39;;;;;;;3.70;2.20;;;;;;;9.23;100.00;100502.06;5092675;28;20067;-61
2022/11/05 08:06:05;;;;;;;3.42;1.90;;;;;;;9.24;100.00;100495.75;5092594;28;20047;-61
2022/11/05 08:08:30;;;;;;;2.65;1.92;;;;;;;9.34;100.00;100497.50;5092570;28;20036;-59
2022/11/05 08:11:07;;;;;;;3.25;2.03;;;;;;;9.39;100.00;100493.38;5092268;28;20039;-61
2022/11/05 08:13:33;;;;;;;10.13;4.80;;;;;;;9.36;100.00;100495.50;5092522;28;20485;-60
2022/11/05 08:16:00;;;;;;;8.45;4.53;;;;;;;9.46;100.00;100505.03;5092281;28;20138;-61
2022/11/05 08:18:30;;;;;;;4.85;2.25;;;;;;;9.45;100.00;100510.47;5092446;28;20119;-60
2022/11/05 08:20:57;;;;;;;2.83;1.85;;;;;;;9.36;100.00;100520.25;5091862;28;20070;-60
2022/11/05 08:23:23;;;;;;;6.55;3.55;;;;;;;9.41;100.00;100522.44;5092456;28;20471;-60
2022/11/05 08:25:48;;;;;;;5.57;2.20;;;;;;;9.40;100.00;100526.94;5091224;28;20115;-60
2022/11/05 08:28:14;;;;;;;4.80;2.05;;;;;;;9.43;100.00;100531.91;5092468;28;20044;-61
2022/11/05 08:30:40;;;;;;;2.97;1.27;;;;;;;9.34;100.00;100524.91;5091873;28;20097;-62
2022/11/05 08:33:09;;;;;;;5.38;2.30;;;;;;;9.38;100.00;100528.06;5092032;28;20115;-61
2022/11/05 08:35:35;;;;;;;3.00;1.85;;;;;;;9.40;100.00;100529.59;5090800;28;20051;-61
2022/11/05 08:38:03;;;;;;;2.70;1.20;;;;;;;9.35;100.00;100526.56;5090848;28;20468;-62
2022/11/05 08:40:30;;;;;;;3.47;1.83;;;;;;;9.36;100.00;100538.88;5091677;28;20122;-62
2022/11/05 08:42:56;;;;;;;2.15;1.55;;;;;;;9.43;100.00;100531.91;5092045;28;20551;-62
2022/11/05 08:45:23;;;;;;;3.47;1.60;;;;;;;9.40;100.00;100537.56;5090524;28;20047;-61
2022/11/05 08:47:49;;;;;;;3.75;1.50;;;;;;;9.34;100.00;100543.53;5091808;28;20036;-60
2022/11/05 08:50:15;;;;;;;2.97;1.63;;;;;;;9.35;100.00;100539.03;5090310;28;20028;-62
2022/11/05 08:52:40;;;;;;;1.95;1.27;;;;;;;9.39;100.00;100541.22;5091893;28;20507;-61
2022/11/05 08:55:06;;;;;;;2.22;1.65;;;;;;;9.48;100.00;100547.41;5091535;28;20035;-62
2022/11/05 08:57:31;;;;;;;2.40;1.30;;;;;;;9.51;100.00;100544.41;5091809;28;20666;-61
2022/11/05 08:59:57;;;;;;;2.95;1.80;;;;;;;9.43;100.00;100542.56;5091649;28;20047;-60
2022/11/05 09:02:22;;;;;;;2.70;1.67;;;;;;;9.47;100.00;100551.91;5088987;28;20054;-62
2022/11/05 09:04:48;;;;;;;1.83;1.45;;;;;;;9.51;100.00;100542.59;5091447;28;20044;-61
2022/11/05 09:07:13;;;;;;;4.93;1.92;;;;;;;9.59;100.00;100547.13;5091638;28;20040;-62
2022/11/05 09:09:38;;;;;;;2.20;1.23;;;;;;;9.62;100.00;100543.31;5091703;28;20062;-62
2022/11/05 09:12:04;;;;;;;2.92;1.75;;;;;;;9.65;100.00;100545.63;5090074;28;20098;-62
2022/11/05 09:14:30;;;;;;;2.17;1.52;;;;;;;9.64;100.00;100554.63;5091743;28;20039;-60
2022/11/05 09:16:55;;;;;;;3.45;2.00;;;;;;;9.69;100.00;100555.81;5091516;28;20445;-61
2022/11/05 09:19:21;;;;;;;3.75;1.80;;;;;;;9.75;100.00;100555.16;5091609;28;20058;-62
2022/11/05 09:21:46;;;;;;;3.38;1.60;;;;;;;9.70;100.00;100556.63;5091103;28;20130;-61
2022/11/05 09:24:12;;;;;;;6.35;1.60;;;;;;;9.66;100.00;100548.16;5090167;28;20036;-61
2022/11/05 09:26:37;;;;;;;2.97;1.63;;;;;;;9.71;100.00;100553.81;5091319;28;20031;-62
2022/11/05 09:29:02;;;;;;;4.28;2.15;;;;;;;9.72;100.00;100565.31;5091220;28;20374;-62
2022/11/05 09:31:28;;;;;;;2.17;1.15;;;;;;;9.71;100.00;100563.63;5091114;28;20039;-61
2022/11/05 09:33:53;;;;;;;1.02;0.88;;;;;;;9.66;100.00;100569.44;5091425;28;20036;-60
2022/11/05 09:36:19;;;;;;;4.22;1.40;;;;;;;9.71;100.00;100571.59;5091390;28;20035;-63
2022/11/05 09:38:44;;;;;;;3.05;1.30;;;;;;;9.75;100.00;100571.13;5091548;28;20138;-63
2022/11/05 09:41:31;;;;;;;8.35;1.65;;;;;;;9.71;100.00;100571.59;5088904;28;20118;-62
2022/11/05 09:44:04;;;;;;;1.83;1.05;;;;;;;9.82;100.00;100581.13;5089874;28;20040;-62
2022/11/05 09:46:53;;;;;;;1.48;0.95;;;;;;;9.78;100.00;100577.97;5091320;28;20036;-63
2022/11/05 09:49:30;;;;;;;1.52;1.27;;;;;;;9.82;100.00;100581.97;5091344;28;20031;-63
2022/11/05 09:51:57;;;;;;;2.15;1.13;;;;;;;9.88;100.00;100581.31;5090965;28;20036;-60
2022/11/05 09:54:27;;;;;;;2.03;1.17;;;;;;;9.87;100.00;100585.00;5090055;28;20405;-60
2022/11/05 09:56:54;;;;;;;2.47;1.50;;;;;;;9.96;100.00;100585.84;5091083;28;20532;-63
2022/11/05 09:59:32;;;;;;;3.53;1.52;;;;;;;9.99;100.00;100578.38;5091474;28;20028;-60
2022/11/05 10:02:08;;;;;;;3.22;1.60;;;;;;;10.06;100.00;100582.06;5090469;28;20035;-61
2022/11/05 10:04:34;;;;;;;2.63;1.75;;;;;;;10.10;100.00;100587.03;5091187;28;20439;-60
2022/11/05 10:07:03;;;;;;;2.25;1.52;;;;;;;10.06;100.00;100589.22;5090838;28;20036;-61
2022/11/05 10:09:46;;;;;;;2.75;1.70;;;;;;;10.05;100.00;100593.72;5093614;28;20123;-60
2022/11/05 10:12:19;;;;;;;2.42;1.63;;;;;;;10.12;100.00;100590.41;5094275;28;20085;-63
2022/11/05 10:14:58;;;;;;;2.53;1.50;;;;;;;10.33;100.00;100590.81;5093409;28;20059;-60
2022/11/05 10:17:25;;;;;;;2.30;1.58;;;;;;;10.62;100.00;100594.84;5094630;28;20401;-60
2022/11/05 10:20:01;;;;;;;1.53;1.30;;;;;;;11.00;100.00;100604.84;5094830;28;20043;-62
2022/11/05 10:22:27;;;;;;;1.77;1.13;;;;;;;11.29;100.00;100599.00;5094025;28;20290;-64
2022/11/05 10:24:53;;;;;;;2.30;1.40;;;;;;;11.71;100.00;100597.88;5094444;28;20108;-62
2022/11/05 10:27:26;;;;;;;1.98;1.27;;;;;;;12.36;100.00;100607.47;5093932;28;20035;-64
2022/11/05 10:29:53;;;;;;;2.22;1.42;;;;;;;12.99;96.60;100601.00;5094349;28;20153;-63
2022/11/05 10:32:34;;;;;;;2.63;1.48;;;;;;;13.18;92.16;100611.22;5094163;28;20108;-63
2022/11/05 10:35:03;;;;;;;7.32;1.70;;;;;;;13.31;89.99;100613.28;5094591;28;20032;-63
2022/11/05 10:37:30;;;;;;;3.58;1.73;;;;;;;13.27;87.04;100610.13;5092981;28;20398;-63
2022/11/05 10:39:56;;;;;;;1.35;0.80;;;;;;;13.31;88.03;100618.66;5094274;28;20135;-63
2022/11/05 10:42:46;;;;;;;2.80;1.70;;;;;;;13.58;85.93;100625.22;5092540;28;20044;-66
2022/11/05 10:45:20;;;;;;;3.15;1.70;;;;;;;13.64;84.78;100621.81;5092855;28;20032;-64
2022/11/05 10:48:08;;;;;;;1.58;1.35;;;;;;;14.11;82.26;100618.75;5093646;28;20050;-61
2022/11/05 10:50:33;;;;;;;4.45;1.88;;;;;;;14.40;81.67;100625.03;5093725;28;20378;-65
2022/11/05 10:53:11;;;;;;;4.35;1.67;;;;;;;13.98;78.49;100618.56;5093258;28;20043;-63
2022/11/05 10:55:42;;;;;;;2.45;1.50;;;;;;;13.52;82.13;100623.28;5094306;28;20040;-63
2022/11/05 10:58:16;;;;;;;2.70;1.48;;;;;;;13.37;81.55;100617.91;5094081;28;20039;-62
2022/11/05 11:00:44;;;;;;;2.17;1.40;;;;;;;13.67;81.90;100613.41;5093805;28;20043;-64
2022/11/05 11:03:44;;;;;;;2.92;0.95;;;;;;;13.83;85.74;100612.41;5093983;28;20028;-64
2022/11/05 11:06:26;;;;;;;2.45;1.35;;;;;;;13.49;86.95;100604.91;5093857;28;20123;-64
2022/11/05 11:08:55;;;;;;;2.78;1.83;;;;;;;12.92;86.29;100616.13;5092713;28;20050;-65
2022/11/05 11:11:27;;;;;;;2.80;1.70;;;;;;;12.80;83.61;100612.19;5093522;28;20047;-65
2022/11/05 11:14:03;;;;;;;1.95;1.52;;;;;;;13.43;80.43;100610.97;5093780;28;20032;-65
2022/11/05 11:16:35;;;;;;;2.22;1.60;;;;;;;14.30;75.57;100603.09;5093762;28;20043;-65
2022/11/05 11:19:02;;;;;;;2.22;1.27;;;;;;;15.41;71.44;100590.91;5093694;28;20040;-65
2022/11/05 11:21:29;;;;;;;3.50;2.40;;;;;;;16.05;67.94;100596.06;5093249;28;20094;-64
2022/11/05 11:24:08;;;;;;;3.28;1.80;;;;;;;16.14;63.95;100592.16;5093632;28;20503;-65
2022/11/05 11:26:38;;;;;;;3.17;2.13;;;;;;;15.74;70.11;100604.59;5093506;28;20040;-65
2022/11/05 11:29:22;;;;;;;3.40;1.85;;;;;;;15.52;73.51;100608.31;5093581;28;20043;-64
2022/11/05 11:31:48;;;;;;;2.47;1.55;;;;;;;15.18;69.98;100604.56;5093196;28;20473;-64
2022/11/05 11:34:37;;;;;;;2.20;1.52;;;;;;;14.65;70.27;100598.75;5106421;22;20049;-65
2022/11/05 11:37:07;;;;;;;6.35;2.40;;;;;;;14.54;71.28;100601.91;5065787;28;20078;-66
2022/11/05 11:39:33;;;;;;;1.80;1.50;;;;;;;14.19;73.66;100607.06;5072991;28;20366;-66
2022/11/05 11:42:06;;;;;;;3.17;1.80;;;;;;;13.51;75.29;100605.56;5072533;28;20143;-65
2022/11/05 11:44:39;;;;;;;2.55;1.70;;;;;;;13.48;76.80;100606.75;5088880;28;20058;-65
2022/11/05 11:47:13;;;;;;;1.65;1.55;;;;;;;13.26;78.00;100608.47;5073263;28;20052;-65
2022/11/05 11:49:49;;;;;;;2.60;1.50;;;;;;;12.95;80.89;100599.69;5073186;28;20111;-65
2022/11/05 11:52:32;;;;;;;3.50;1.90;;;;;;;12.58;81.20;100605.81;5063570;28;20032;-65
2022/11/05 11:55:10;;;;;;;3.58;2.17;;;;;;;12.62;83.72;100607.97;5070746;28;20095;-65
2022/11/05 11:57:43;;;;;;;2.58;1.70;;;;;;;12.49;86.43;100607.72;5072950;28;20490;-65
2022/11/05 12:00:09;;;;;;;2.97;1.48;;;;;;;12.33;84.68;100605.16;5072722;28;20516;-65
2022/11/05 12:02:43;;;;;;;2.75;1.63;;;;;;;12.30;85.82;100609.00;5058655;28;20024;-65
2022/11/05 12:05:14;;;;;;;2.30;1.67;;;;;;;12.21;86.26;100615.41;5061853;28;20102;-66
2022/11/05 12:07:47;;;;;;;3.42;1.98;;;;;;;12.19;87.60;100610.25;5060364;28;20127;-65
2022/11/05 12:10:40;;;;;;;3.97;1.75;;;;;;;12.06;90.12;100606.44;5051665;28;20055;-66
2022/11/05 12:13:18;;;;;;;4.97;1.23;;;;;;;12.12;87.40;100611.94;5052008;28;20116;-65
2022/11/05 12:15:56;;;;;;;1.95;1.38;;;;;;;12.03;85.25;100607.63;5052394;28;20071;-66
2022/11/05 12:18:59;;;;;;;4.13;1.83;;;;;;;12.21;87.38;100600.22;5054142;28;20421;-65
2022/11/05 12:21:45;;;;;;;6.03;2.42;;;;;;;12.34;85.17;100599.66;5051456;28;20062;-66
2022/11/05 12:24:29;;;;;;;4.27;1.93;;;;;;;12.45;85.42;100609.06;5052143;28;20048;-66
2022/11/05 12:27:04;;;;;;;4.00;1.95;;;;;;;12.34;84.90;100604.97;5051936;28;20115;-65
2022/11/05 12:29:32;;;;;;;3.03;2.28;;;;;;;12.32;85.50;100603.47;5052031;28;20040;-65
2022/11/05 12:32:26;;;;;;;3.80;1.95;;;;;;;12.31;86.33;100605.31;5050697;28;20543;-66
2022/11/05 12:35:00;;;;;;;3.17;2.42;;;;;;;12.31;85.23;100604.50;5071414;28;20386;-66
2022/11/05 12:37:48;;;;;;;5.70;2.75;;;;;;;12.12;85.43;100601.25;5071284;28;20485;-66
2022/11/05 12:40:22;;;;;;;5.57;2.22;;;;;;;12.00;87.12;100600.00;5070647;28;20050;-66
2022/11/05 12:42:56;;;;;;;2.33;1.75;;;;;;;12.04;87.37;100603.97;5071187;28;20036;-66
2022/11/05 12:45:37;;;;;;;3.30;2.15;;;;;;;11.92;85.10;100600.00;5071162;28;20044;-66
2022/11/05 12:48:27;;;;;;;3.17;1.98;;;;;;;11.84;84.09;100597.38;5071429;28;20036;-66
2022/11/05 12:51:03;;;;;;;2.10;1.30;;;;;;;11.95;83.38;100602.34;5070618;28;20065;-66
2022/11/05 12:53:47;;;;;;;6.65;2.30;;;;;;;11.84;84.73;100597.38;5060343;28;20029;-65
2022/11/05 12:56:29;;;;;;;4.20;2.15;;;;;;;11.68;85.40;100598.25;5051427;28;20041;-66
2022/11/05 12:59:04;;;;;;;3.72;2.30;;;;;;;11.69;86.74;100602.56;5051368;28;20028;-65
2022/11/05 13:01:35;;;;;;;4.32;2.78;;;;;;;11.53;86.71;100605.28;5050158;28;20037;-66
2022/11/05 13:04:10;;;;;;;3.33;1.90;;;;;;;11.45;89.08;100600.81;5068825;28;20032;-66
2022/11/05 13:06:39;;;;;;;3.78;2.35;;;;;;;11.37;89.09;100600.81;5071266;28;20033;-65
2022/11/05 13:09:16;;;;;;;6.22;2.10;;;;;;;11.36;90.31;100600.00;5071202;28;20025;-66
2022/11/05 13:11:58;;;;;;;3.03;1.90;;;;;;;11.26;89.96;100599.31;5070536;28;20037;-63
2022/11/05 13:14:37;;;;;;;2.05;1.75;;;;;;;11.19;91.24;100602.84;5070762;28;20037;-65
2022/11/05 13:17:10;;;;;;;2.92;1.77;;;;;;;11.13;93.03;100615.00;5070657;28;20039;-65
2022/11/05 13:19:41;;;;;;;2.83;2.28;;;;;;;11.01;90.92;100603.03;5071048;28;20036;-65
2022/11/05 13:22:19;;;;;;;2.90;2.05;;;;;;;10.93;91.02;100614.53;5070156;28;20120;-65
2022/11/05 13:24:49;;;;;;;6.57;2.42;;;;;;;10.86;89.36;100613.53;5070827;28;20119;-65
2022/11/05 13:27:27;;;;;;;3.28;1.63;;;;;;;10.92;88.61;100617.34;5069170;28;20044;-65
2022/11/05 13:30:00;;;;;;;2.75;1.98;;;;;;;10.84;88.70;100612.88;5071122;28;20072;-65
2022/11/05 13:32:31;;;;;;;2.78;1.77;;;;;;;10.84;88.76;100620.84;5070274;28;20040;-65
2022/11/05 13:35:12;;;;;;;3.00;1.73;;;;;;;10.95;88.54;100617.84;5070580;28;20040;-65
2022/11/05 13:40:53;;;;;;;5.82;2.35;;;;;;;11.23;92.24;100617.53;5069985;28;20028;-65
2022/11/05 13:43:45;;;;;;;3.38;2.30;;;;;;;11.45;91.50;100616.81;5065349;28;20054;-64
2022/11/05 13:46:32;;;;;;;4.80;2.05;;;;;;;11.66;90.23;100611.75;5075401;28;20040;-67
2022/11/05 13:49:17;;;;;;;2.50;1.75;;;;;;;11.84;87.19;100618.72;5090333;28;20029;-67
2022/11/05 13:51:48;;;;;;;3.10;2.40;;;;;;;11.87;87.43;100623.75;5073823;28;20166;-67
2022/11/05 13:54:31;;;;;;;2.80;1.98;;;;;;;11.87;87.43;100629.09;5074517;28;20052;-66
2022/11/05 13:57:28;;;;;;;6.50;2.00;;;;;;;11.90;83.37;100620.72;5075109;28;20040;-66
2022/11/05 14:00:02;;;;;;;2.72;1.88;;;;;;;11.78;81.54;100624.72;5074713;28;20028;-67
2022/11/05 14:02:53;;;;;;;2.10;1.70;;;;;;;11.75;79.79;100623.25;5072532;28;20455;-65
2022/11/05 14:05:23;;;;;;;2.03;1.65;;;;;;;11.65;77.72;100627.94;5074328;28;20079;-67
2022/11/05 14:07:50;;;;;;;2.08;1.52;;;;;;;11.68;78.18;100638.28;5074564;28;20048;-67
2022/11/05 14:10:27;;;;;;;1.75;1.50;;;;;;;11.63;78.98;100628.09;5071919;28;20048;-66
2022/11/05 14:12:54;;;;;;;1.88;1.65;;;;;;;11.54;79.75;100631.81;5073845;28;20044;-66
2022/11/05 14:15:21;;;;;;;4.32;1.70;;;;;;;11.59;79.98;100632.09;5063239;28;20029;-66
2022/11/05 14:18:03;;;;;;;2.22;1.77;;;;;;;11.63;82.92;100624.59;5054442;28;20047;-66
2022/11/05 14:20:32;;;;;;;5.35;1.83;;;;;;;11.62;79.96;100623.78;5054449;28;20064;-64
2022/11/05 14:23:22;;;;;;;3.03;1.90;;;;;;;11.56;82.32;100628.97;5054634;28;20072;-66
2022/11/05 14:25:54;;;;;;;8.65;2.08;;;;;;;11.56;79.49;100621.78;5054596;28;20389;-65
2022/11/05 14:28:35;;;;;;;2.30;1.60;;;;;;;11.50;80.58;100627.81;5054587;28;20467;-64
2022/11/05 14:31:19;;;;;;;4.28;1.70;;;;;;;11.47;83.17;100616.63;5053997;28;20033;-65
2022/11/05 14:34:09;;;;;;;4.00;1.65;;;;;;;11.50;80.02;100626.97;5054134;28;20131;-65
2022/11/05 14:37:09;;;;;;;3.88;1.70;;;;;;;11.56;81.18;100626.28;5054489;28;20044;-65
2022/11/05 14:39:35;;;;;;;3.28;1.70;;;;;;;11.53;80.84;100630.13;4986222;28;20081;-65
2022/11/05 14:42:21;;;;;;;2.67;1.70;;;;;;;11.51;81.51;100629.47;5053935;28;20051;-66
2022/11/05 14:45:12;;;;;;;4.38;1.80;;;;;;;11.45;80.84;100635.47;5054207;28;20037;-65
2022/11/05 14:47:43;;;;;;;3.28;1.67;;;;;;;11.34;82.05;100625.16;5054298;28;20059;-65
2022/11/05 14:50:21;;;;;;;5.47;1.77;;;;;;;11.18;81.16;100622.50;5054055;28;20516;-65
2022/11/05 14:52:55;;;;;;;1.65;1.27;;;;;;;11.16;80.87;100628.03;5053761;28;20061;-64
2022/11/05 14:55:36;;;;;;;3.45;1.80;;;;;;;11.14;81.98;100625.50;5053891;28;20462;-72
2022/11/05 14:58:24;;;;;;;4.88;2.17;;;;;;;11.18;82.01;100627.84;5054051;28;20068;-71
2022/11/05 15:00:50;;;;;;;4.43;1.83;;;;;;;11.07;81.84;100626.34;5054004;28;20044;-71
2022/11/05 15:03:39;;;;;;;5.95;1.77;;;;;;;11.05;79.91;100634.50;5053912;28;20044;-71
2022/11/05 15:06:27;;;;;;;2.78;1.52;;;;;;;10.97;79.88;100634.53;5054368;28;20393;-71
2022/11/05 15:09:02;;;;;;;3.58;1.92;;;;;;;10.89;81.83;100634.53;5053966;28;20029;-71
2022/11/05 15:11:34;;;;;;;4.07;2.03;;;;;;;10.78;81.68;100641.00;5053659;28;20131;-71
2022/11/05 15:14:07;;;;;;;3.17;2.03;;;;;;;10.74;82.87;100649.47;5053826;28;20044;-71
2022/11/05 15:16:39;;;;;;;3.22;2.00;;;;;;;10.71;82.83;100644.50;5053786;28;20047;-71
2022/11/05 15:19:15;;;;;;;3.95;2.22;;;;;;;10.66;83.65;100654.81;5053832;28;20051;-71
2022/11/05 15:21:43;;;;;;;2.78;1.92;;;;;;;10.60;84.06;100646.47;5053513;28;20032;-71
2022/11/05 15:24:10;;;;;;;;;;;;;;;10.56;84.54;100642.47;5054106;28;20033;-71
2022/11/05 15:26:52;;;;;;;2.22;1.45;;;;;;;10.45;84.92;100632.13;5053622;28;20058;-71
2022/11/05 15:29:25;;;;;;;3.35;2.20;;;;;;;10.41;84.42;100636.09;5053656;28;20134;-71
2022/11/05 15:31:51;;;;;;;2.90;1.95;;;;;;;10.41;87.04;100630.78;5053187;28;20041;-71
2022/11/05 15:34:22;;;;;;;4.50;2.40;;;;;;;10.39;87.37;100626.63;5053150;28;20045;-71
2022/11/05 15:37:00;;;;;;;5.18;2.38;;;;;;;10.33;85.81;100628.94;5053599;28;20033;-71
2022/11/05 15:39:38;;;;;;;;;;;;;;;10.27;86.46;100644.72;5053772;28;20054;-71
2022/11/05 15:42:15;;;;;;;2.72;2.35;;;;;;;10.15;87.94;100627.34;5053202;28;19917;-71
2022/11/05 15:44:46;;;;;;;10.63;2.47;;;;;;;10.21;87.69;100637.34;5053232;28;20049;-70
2022/11/05 15:47:19;;;;;;;5.88;3.08;;;;;;;10.16;88.15;100643.13;5053497;28;20124;-69
2022/11/05 15:49:54;;;;;;;4.07;2.60;;;;;;;10.16;88.42;100648.47;5053133;28;20048;-69
2022/11/05 15:52:23;;;;;;;4.43;2.47;;;;;;;10.13;90.14;100646.13;5052903;28;20076;-69
2022/11/05 15:55:08;;;;;;;5.82;3.03;;;;;;;10.13;90.02;100647.97;5053053;28;20027;-69
2022/11/05 15:57:35;;;;;;;4.05;2.30;;;;;;;10.08;90.17;100643.13;5051738;28;20060;-69
2022/11/05 16:00:15;;;;;;;7.40;2.85;;;;;;;10.02;91.73;100641.91;5052863;28;20029;-69
2022/11/05 16:02:40;;;;;;;3.63;2.47;;;;;;;9.97;91.95;100640.72;5053045;28;20029;-69
2022/11/05 16:05:12;;;;;;;5.25;2.75;;;;;;;9.92;92.98;100637.75;5051903;28;20367;-69
2022/11/05 16:07:43;;;;;;;4.32;2.65;;;;;;;9.84;92.85;100635.84;5052870;28;20485;-69
2022/11/05 16:10:39;;;;;;;3.60;2.13;;;;;;;9.83;91.82;100641.34;5052944;28;20402;-69
2022/11/05 16:13:31;;;;;;;10.15;3.13;;;;;;;9.78;92.11;100639.16;5052361;28;20053;-70
2022/11/05 16:16:00;;;;;;;5.32;2.50;;;;;;;9.73;92.81;100654.75;5052680;28;20033;-70
2022/11/05 16:18:32;;;;;;;6.90;2.78;;;;;;;9.67;92.97;100652.72;5052473;28;20063;-71
2022/11/05 16:21:06;;;;;;;6.43;2.78;;;;;;;9.62;93.73;100663.84;5053094;28;20029;-72
2022/11/05 16:23:53;;;;;;;6.63;2.92;;;;;;;9.56;93.93;100655.66;5052239;28;20037;-71
2022/11/05 16:26:33;;;;;;;7.07;2.40;;;;;;;9.50;93.44;100662.41;5051873;28;20036;-71
2022/11/05 16:29:02;;;;;;;4.18;2.60;;;;;;;9.37;93.29;100657.50;5052369;28;20037;-70
2022/11/05 16:31:30;;;;;;;3.38;2.47;;;;;;;9.33;94.24;100656.19;5050370;28;20037;-71
2022/11/05 16:33:56;;;;;;;;;;;;;;;9.30;96.62;100660.94;5052384;28;20028;-70
2022/11/05 16:36:23;;;;;;;5.97;2.85;;;;;;;9.25;97.95;100661.41;5052189;28;20477;-70
2022/11/05 16:38:48;;;;;;;5.25;2.25;;;;;;;9.14;100.00;100661.69;5052096;28;20410;-71
2022/11/05 16:41:17;;;;;;;7.15;3.17;;;;;;;9.06;100.00;100665.06;5051590;28;20105;-71
2022/11/05 16:43:54;;;;;;;4.90;2.72;;;;;;;9.00;100.00;100670.16;5051654;28;20051;-71
2022/11/05 16:46:21;;;;;;;9.88;3.88;;;;;;;8.88;100.00;100664.28;5051975;28;20034;-70
2022/11/05 16:48:47;;;;;;;6.40;3.17;;;;;;;8.83;100.00;100661.22;5051917;28;20064;-71
2022/11/05 16:51:13;;;;;;;7.72;3.50;;;;;;;8.81;99.90;100672.00;5051534;28;20084;-71
2022/11/05 16:53:38;;;;;;;17.95;5.25;;;;;;;8.76;100.00;100674.28;5052000;28;20175;-72
2022/11/05 16:56:04;;;;;;;9.30;4.75;;;;;;;8.78;100.00;100674.97;5051787;28;20064;-73
2022/11/05 16:58:30;;;;;;;13.80;7.63;;;;;;;8.70;100.00;100678.38;5051400;28;20118;-70
2022/11/05 17:01:06;;;;;;;18.65;7.18;;;;;;;8.78;100.00;100682.09;5051485;28;20048;-70
2022/11/05 17:03:32;;;;;;;15.98;6.38;;;;;;;8.80;100.00;100682.75;5051608;28;20029;-72
2022/11/05 17:05:57;;;;;;;10.18;4.93;;;;;;;8.63;100.00;100676.47;5051706;28;20040;-72
2022/11/05 17:08:23;;;;;;;16.20;7.40;;;;;;;8.41;100.00;100669.75;5051726;28;20035;-71
2022/11/05 17:10:48;;;;;;;22.05;9.00;;;;;;;8.39;100.00;100679.69;5051381;28;20076;-71
2022/11/05 17:13:15;;;;;;;16.85;7.95;;;;;;;8.27;100.00;100684.31;5051679;28;20041;-69